createdAt,value
2023-02-25T00:02:39.048Z,98810.09
2023-02-25T00:05:45.293Z,98808.19
2023-02-25T00:08:49.330Z,98809.34
2023-02-25T00:11:54.641Z,98796.69
2023-02-25T00:14:59.503Z,98787.91
2023-02-25T00:18:03.044Z,98798.34
2023-02-25T00:21:09.497Z,98783.13
2023-02-25T00:24:17.084Z,98776.09
2023-02-25T00:27:20.518Z,98792.38
2023-02-25T00:30:25.308Z,98825.34
2023-02-25T00:33:32.148Z,98830.31
2023-02-25T00:36:36.420Z,98834.88
2023-02-25T00:39:44.466Z,98844.66
2023-02-25T00:42:49.462Z,98839.84
2023-02-25T00:45:54.414Z,98836.09
2023-02-25T00:48:58.561Z,98833.22
2023-02-25T00:52:01.998Z,98829.63
2023-02-25T00:55:08.451Z,98826.78
2023-02-25T00:58:11.859Z,98815.97
2023-02-25T01:01:22.895Z,98815.69
2023-02-25T01:04:26.175Z,98814.44
2023-02-25T01:07:30.426Z,98791.13
2023-02-25T01:10:33.600Z,98802.84
2023-02-25T01:13:36.766Z,98802.41
2023-02-25T01:16:41.625Z,98802.09
2023-02-25T01:19:44.758Z,98795.94
2023-02-25T01:22:50.237Z,98792.03
2023-02-25T01:25:53.543Z,98791.72
2023-02-25T01:28:58.086Z,98788.13
2023-02-25T01:32:05.861Z,98785.84
2023-02-25T01:35:11.078Z,98777.59
2023-02-25T01:38:14.437Z,98781.38
2023-02-25T01:41:18.013Z,98779.44
2023-02-25T01:44:23.624Z,98772.41
2023-02-25T01:47:33.590Z,98774.56
2023-02-25T01:50:49.366Z,98778.56
2023-02-25T01:53:53.044Z,98782.69
2023-02-25T01:56:58.455Z,98772.03
2023-02-25T02:00:01.579Z,98777.81
2023-02-25T02:03:17.494Z,98778.19
2023-02-25T02:06:24.882Z,98768.63
2023-02-25T02:09:30.141Z,98776.09
2023-02-25T02:12:37.100Z,98780.31
2023-02-25T02:15:49.235Z,98771.25
2023-02-25T02:18:58.979Z,98767.00
2023-02-25T02:22:13.730Z,98769.72
2023-02-25T02:26:00.724Z,98772.06
2023-02-25T02:30:06.098Z,98776.16
2023-02-25T02:33:19.962Z,98784.59
2023-02-25T02:36:37.060Z,98777.91
2023-02-25T02:39:52.410Z,98775.34
2023-02-25T02:43:12.353Z,98778.84
2023-02-25T02:46:22.032Z,98775.34
2023-02-25T02:49:34.001Z,98781.19
2023-02-25T02:52:49.789Z,98783.69
2023-02-25T02:55:56.743Z,98792.22
2023-02-25T02:59:05.439Z,98787.88
2023-02-25T03:02:14.833Z,98803.44
2023-02-25T03:05:21.398Z,98804.34
2023-02-25T03:08:30.389Z,98808.09
2023-02-25T03:11:34.919Z,98804.19
2023-02-25T03:14:39.128Z,98825.47
2023-02-25T03:17:49.872Z,98826.53
2023-02-25T03:20:57.324Z,98829.31
2023-02-25T03:24:03.878Z,98837.34
2023-02-25T03:27:24.781Z,98848.66
2023-02-25T03:30:34.699Z,98852.88
2023-02-25T03:33:48.422Z,98851.31
2023-02-25T03:36:58.420Z,98864.41
2023-02-25T03:40:10.805Z,98863.47
2023-02-25T03:43:23.879Z,98870.00
2023-02-25T03:46:28.850Z,98876.69
2023-02-25T03:49:38.079Z,98872.78
2023-02-25T03:52:45.702Z,98880.25
2023-02-25T03:56:09.761Z,98877.50
2023-02-25T03:59:15.868Z,98886.78
2023-02-25T04:02:20.324Z,98892.81
2023-02-25T04:05:27.863Z,98882.84
2023-02-25T04:08:33.216Z,98886.25
2023-02-25T04:11:36.506Z,98888.91
2023-02-25T04:14:42.450Z,98894.56
2023-02-25T04:17:46.925Z,98889.41
2023-02-25T04:20:52.531Z,98914.53
2023-02-25T04:24:00.148Z,98912.03
2023-02-25T04:27:03.391Z,98907.94
2023-02-25T04:30:08.548Z,98915.66
2023-02-25T04:33:12.779Z,98917.41
2023-02-25T04:36:29.011Z,98925.22
2023-02-25T04:39:33.890Z,98921.00
2023-02-25T04:42:37.436Z,98925.63
2023-02-25T04:45:41.100Z,98922.53
2023-02-25T04:48:44.200Z,98931.09
2023-02-25T04:51:47.590Z,98930.34
2023-02-25T04:54:52.082Z,98940.53
2023-02-25T04:57:55.553Z,98936.53
2023-02-25T05:01:01.204Z,98949.38
2023-02-25T05:04:04.776Z,98943.50
2023-02-25T05:07:14.023Z,98947.22
2023-02-25T05:10:18.641Z,98952.25
2023-02-25T05:13:22.738Z,98951.50
2023-02-25T05:16:27.542Z,98954.81
2023-02-25T05:19:30.786Z,98959.84
2023-02-25T05:22:34.184Z,98959.03
2023-02-25T05:25:41.252Z,98965.69
2023-02-25T05:28:44.499Z,98961.38
2023-02-25T05:31:49.582Z,98966.53
2023-02-25T05:34:55.162Z,98963.03
2023-02-25T05:37:58.265Z,98968.16
2023-02-25T05:41:02.937Z,98975.03
2023-02-25T05:44:16.732Z,98981.13
2023-02-25T05:47:30.124Z,98993.25
2023-02-25T05:50:43.983Z,99000.03
2023-02-25T05:53:53.744Z,99003.63
2023-02-25T05:57:02.419Z,99011.41
2023-02-25T06:00:09.765Z,99011.53
2023-02-25T06:03:15.565Z,99019.94
2023-02-25T06:06:23.493Z,99028.41
2023-02-25T06:09:27.245Z,99025.47
2023-02-25T06:12:38.081Z,99036.16
2023-02-25T06:15:43.309Z,99044.78
2023-02-25T06:18:47.374Z,99048.28
2023-02-25T06:21:51.081Z,99053.69
2023-02-25T06:24:54.341Z,99070.84
2023-02-25T06:27:59.445Z,99081.50
2023-02-25T06:31:02.624Z,99073.00
2023-02-25T06:34:06.252Z,99086.28
2023-02-25T06:37:10.137Z,99085.47
2023-02-25T06:40:16.273Z,99092.34
2023-02-25T06:43:20.931Z,99100.97
2023-02-25T06:46:27.172Z,99109.69
2023-02-25T06:49:31.332Z,99121.91
2023-02-25T06:52:35.727Z,99130.53
2023-02-25T06:55:42.751Z,99134.09
2023-02-25T06:58:47.967Z,99135.00
2023-02-25T07:01:51.461Z,99142.81
2023-02-25T07:04:55.006Z,99155.81
2023-02-25T07:07:58.853Z,99158.75
2023-02-25T07:11:15.170Z,99168.47
2023-02-25T07:14:19.970Z,99171.97
2023-02-25T07:17:23.356Z,99186.28
2023-02-25T07:20:26.514Z,99184.44
2023-02-25T07:23:29.615Z,99183.50
2023-02-25T07:26:32.951Z,99194.69
2023-02-25T07:29:37.379Z,99186.06
2023-02-25T07:32:40.790Z,99190.84
2023-02-25T07:35:44.104Z,99202.03
2023-02-25T07:38:48.588Z,99203.78
2023-02-25T07:41:51.734Z,99207.88
2023-02-25T07:44:58.856Z,99217.97
2023-02-25T07:48:03.093Z,99216.50
2023-02-25T07:51:07.186Z,99222.28
2023-02-25T07:54:10.308Z,99240.00
2023-02-25T07:57:13.671Z,99235.78
2023-02-25T08:00:20.681Z,99239.25
2023-02-25T08:03:23.948Z,99239.25
2023-02-25T08:06:28.852Z,99248.00
2023-02-25T08:09:31.884Z,99248.88
2023-02-25T08:12:38.362Z,99261.34
2023-02-25T08:15:44.048Z,99253.56
2023-02-25T08:18:47.987Z,99261.00
2023-02-25T08:21:51.696Z,99264.47
2023-02-25T08:24:55.968Z,99265.09
2023-02-25T08:27:59.211Z,99282.34
2023-02-25T08:31:04.386Z,99284.75
2023-02-25T08:34:07.724Z,99286.94
2023-02-25T08:37:12.153Z,99287.66
2023-02-25T08:40:17.293Z,99297.66
2023-02-25T08:43:21.636Z,99308.03
2023-02-25T08:46:29.356Z,99314.34
2023-02-25T08:49:32.734Z,99326.81
2023-02-25T08:52:35.804Z,99326.53
2023-02-25T08:55:39.792Z,99323.91
2023-02-25T08:58:43.927Z,99331.31
2023-02-25T09:01:50.352Z,99337.47
2023-02-25T09:04:53.902Z,99342.69
2023-02-25T09:07:59.123Z,99352.59
2023-02-25T09:11:10.685Z,99354.91
2023-02-25T09:14:15.131Z,99356.09
2023-02-25T09:17:19.622Z,99369.31
2023-02-25T09:20:24.207Z,99374.28
2023-02-25T09:23:27.602Z,99385.06
2023-02-25T09:26:30.763Z,99375.38
2023-02-25T09:29:34.524Z,99397.56
2023-02-25T09:32:39.811Z,99389.13
2023-02-25T09:35:43.413Z,99401.31
2023-02-25T09:38:49.158Z,99404.34
2023-02-25T09:41:57.264Z,99413.88
2023-02-25T09:45:04.539Z,99413.72
2023-02-25T09:48:18.952Z,99427.19
2023-02-25T09:51:24.966Z,99435.00
2023-02-25T09:54:34.366Z,99436.50
2023-02-25T09:57:41.465Z,99440.34
2023-02-25T10:00:50.403Z,99450.63
2023-02-25T10:04:00.489Z,99451.75
2023-02-25T10:07:16.365Z,99454.25
2023-02-25T10:10:26.429Z,99461.78
2023-02-25T10:13:43.315Z,99484.81
2023-02-25T10:16:55.391Z,99489.13
2023-02-25T10:20:33.592Z,99492.13
2023-02-25T10:24:07.554Z,99504.06
2023-02-25T10:27:22.469Z,99505.63
2023-02-25T10:30:33.347Z,99512.88
2023-02-25T10:33:40.358Z,99524.34
2023-02-25T10:36:49.331Z,99531.50
2023-02-25T10:39:58.342Z,99525.34
2023-02-25T10:43:20.165Z,99534.63
2023-02-25T10:46:32.339Z,99542.06
2023-02-25T10:49:38.456Z,99544.47
2023-02-25T10:52:57.642Z,99552.19
2023-02-25T10:56:02.014Z,99550.88
2023-02-25T10:59:09.968Z,99555.94
2023-02-25T11:02:28.648Z,99560.63
2023-02-25T11:05:37.087Z,99563.25
2023-02-25T11:08:44.677Z,99576.13
2023-02-25T11:11:56.484Z,99575.50
2023-02-25T11:15:19.602Z,99586.94
2023-02-25T11:18:30.695Z,99586.44
2023-02-25T11:21:40.381Z,99593.50
2023-02-25T11:24:47.113Z,99603.25
2023-02-25T11:27:58.771Z,99603.56
2023-02-25T11:31:17.830Z,99621.44
2023-02-25T11:34:26.865Z,99617.16
2023-02-25T11:37:48.083Z,99620.00
2023-02-25T11:41:17.802Z,99625.72
2023-02-25T11:45:05.833Z,99617.66
2023-02-25T11:48:45.764Z,99638.72
2023-02-25T11:52:09.658Z,99627.88
2023-02-25T11:55:52.989Z,99632.41
2023-02-25T11:59:17.500Z,99639.66
2023-02-25T12:02:28.879Z,99644.13
2023-02-25T12:05:50.393Z,99641.41
2023-02-25T12:09:41.444Z,99644.97
2023-02-25T12:13:13.777Z,99671.72
2023-02-25T12:17:15.009Z,99690.38
2023-02-25T12:20:51.202Z,99686.72
2023-02-25T12:24:33.591Z,99691.50
2023-02-25T12:28:14.695Z,99703.41
2023-02-25T12:32:08.434Z,99702.59
2023-02-25T12:35:50.718Z,99704.47
2023-02-25T12:39:27.799Z,99695.13
2023-02-25T12:42:53.708Z,99702.19
2023-02-25T12:46:39.604Z,99700.09
2023-02-25T12:50:04.987Z,99706.09
2023-02-25T12:53:25.144Z,99702.16
2023-02-25T12:57:04.424Z,99707.91
2023-02-25T13:00:47.656Z,99711.34
2023-02-25T13:04:15.455Z,99716.47
2023-02-25T13:07:45.388Z,99723.63
2023-02-25T13:11:00.623Z,99730.28
2023-02-25T13:14:33.746Z,99747.56
2023-02-25T13:17:56.739Z,99752.38
2023-02-25T13:21:21.120Z,99756.56
2023-02-25T13:24:45.824Z,99764.69
2023-02-25T13:28:15.718Z,99779.03
2023-02-25T13:31:31.348Z,99793.97
2023-02-25T13:34:45.586Z,99790.66
2023-02-25T13:38:02.077Z,99791.00
2023-02-25T13:41:42.895Z,99790.72
2023-02-25T13:45:27.805Z,99794.31
2023-02-25T13:49:05.041Z,99795.88
2023-02-25T13:52:22.577Z,99807.81
2023-02-25T13:55:39.754Z,99808.13
2023-02-25T13:59:13.236Z,99814.06
2023-02-25T14:02:39.484Z,99809.09
2023-02-25T14:06:01.248Z,99814.84
2023-02-25T14:09:23.211Z,99824.88
2023-02-25T14:12:45.143Z,99831.75
2023-02-25T14:16:07.360Z,99846.22
2023-02-25T14:19:30.727Z,99857.63
2023-02-25T14:22:41.808Z,99862.22
2023-02-25T14:26:08.146Z,99862.91
2023-02-25T14:29:22.292Z,99874.34
2023-02-25T14:32:51.693Z,99878.38
2023-02-25T14:36:13.455Z,99880.72
2023-02-25T14:39:40.198Z,99883.72
2023-02-25T14:43:06.227Z,99894.78
2023-02-25T14:46:23.521Z,99907.47
2023-02-25T14:49:40.879Z,99917.88
2023-02-25T14:53:30.767Z,99915.31
2023-02-25T14:56:52.475Z,99926.34
2023-02-25T15:00:16.244Z,99932.78
2023-02-25T15:04:05.778Z,99943.06
2023-02-25T15:07:31.527Z,99943.94
2023-02-25T15:11:02.417Z,99950.78
2023-02-25T15:14:41.800Z,99954.00
2023-02-25T15:18:41.640Z,99969.09
2023-02-25T15:21:46.779Z,99970.00
2023-02-25T15:24:54.207Z,99975.16
2023-02-25T15:28:00.355Z,99985.19
2023-02-25T15:31:34.220Z,99990.34
2023-02-25T15:34:39.406Z,100001.44
2023-02-25T15:38:09.547Z,100007.34
2023-02-25T15:41:42.380Z,100023.56
2023-02-25T15:44:46.864Z,100030.69
2023-02-25T15:47:50.606Z,100035.84
2023-02-25T15:50:54.357Z,100040.00
2023-02-25T15:53:58.150Z,100040.22
2023-02-25T15:57:05.009Z,100047.28
2023-02-25T16:00:52.224Z,100050.75
2023-02-25T16:03:56.237Z,100055.97
2023-02-25T16:07:00.285Z,100061.94
2023-02-25T16:10:12.090Z,100072.31
2023-02-25T16:13:22.960Z,100070.66
2023-02-25T16:16:27.281Z,100082.00
2023-02-25T16:19:36.375Z,100096.66
2023-02-25T16:22:45.615Z,100106.09
2023-02-25T16:26:07.082Z,100108.91
2023-02-25T16:29:33.843Z,100115.38
2023-02-25T16:32:49.290Z,100121.59
2023-02-25T16:36:07.748Z,100124.38
2023-02-25T16:39:17.007Z,100128.75
2023-02-25T16:42:21.366Z,100132.97
2023-02-25T16:45:30.484Z,100133.09
2023-02-25T16:48:38.448Z,100137.88
2023-02-25T16:51:44.748Z,100144.97
2023-02-25T16:54:53.387Z,100152.00
2023-02-25T16:58:06.278Z,100148.53
2023-02-25T17:01:24.996Z,100157.19
2023-02-25T17:04:32.862Z,100168.28
2023-02-25T17:07:37.138Z,100170.91
2023-02-25T17:10:46.679Z,100189.75
2023-02-25T17:13:51.680Z,100177.69
2023-02-25T17:16:57.722Z,100192.22
2023-02-25T17:20:06.060Z,100207.72
2023-02-25T17:23:13.048Z,100217.84
2023-02-25T17:26:17.759Z,100221.25
2023-02-25T17:29:22.113Z,100224.53
2023-02-25T17:32:29.919Z,100232.41
2023-02-25T17:35:34.588Z,100227.38
2023-02-25T17:38:39.205Z,100235.84
2023-02-25T17:41:43.916Z,100230.22
2023-02-25T17:44:47.468Z,100231.28
2023-02-25T17:47:51.940Z,100247.50
2023-02-25T17:50:59.683Z,100246.06
2023-02-25T17:54:07.707Z,100245.38
2023-02-25T17:57:17.918Z,100254.97
2023-02-25T18:00:25.005Z,100262.84
2023-02-25T18:03:30.777Z,100254.53
2023-02-25T18:06:42.897Z,100268.28
2023-02-25T18:09:46.084Z,100263.19
2023-02-25T18:12:49.991Z,100269.25
2023-02-25T18:16:34.491Z,100267.41
2023-02-25T18:19:42.901Z,100270.75
2023-02-25T18:22:49.399Z,100274.41
2023-02-25T18:26:15.525Z,100275.19
2023-02-25T18:29:21.667Z,100284.56
2023-02-25T18:32:24.851Z,100288.56
2023-02-25T18:35:31.304Z,100292.91
2023-02-25T18:38:37.792Z,100286.78
2023-02-25T18:41:40.952Z,100301.28
2023-02-25T18:44:45.623Z,100308.06
2023-02-25T18:47:50.542Z,100299.56
2023-02-25T18:50:56.365Z,100303.94
2023-02-25T18:53:59.880Z,100308.16
2023-02-25T18:57:02.914Z,100304.69
2023-02-25T19:00:08.183Z,100316.84
2023-02-25T19:03:17.248Z,100320.28
2023-02-25T19:06:21.660Z,100325.38
2023-02-25T19:09:27.548Z,100325.41
2023-02-25T19:12:35.195Z,100332.31
2023-02-25T19:15:38.202Z,100328.84
2023-02-25T19:18:42.826Z,100336.38
2023-02-25T19:21:47.833Z,100335.63
2023-02-25T19:24:51.678Z,100344.06
2023-02-25T19:27:56.888Z,100354.25
2023-02-25T19:31:00.197Z,100358.66
2023-02-25T19:34:03.357Z,100369.72
2023-02-25T19:37:07.784Z,100368.06
2023-02-25T19:40:14.563Z,100372.22
2023-02-25T19:43:18.643Z,100378.19
2023-02-25T19:46:21.844Z,100391.75
2023-02-25T19:49:25.185Z,100388.53
2023-02-25T19:52:30.532Z,100395.34
2023-02-25T19:55:34.195Z,100401.16
2023-02-25T19:58:37.317Z,100405.47
2023-02-25T20:01:41.396Z,100406.41
2023-02-25T20:04:44.766Z,100417.47
2023-02-25T20:07:49.441Z,100420.09
2023-02-25T20:10:52.620Z,100419.34
2023-02-25T20:13:56.046Z,100433.00
2023-02-25T20:17:00.813Z,100433.94
2023-02-25T20:20:04.277Z,100435.50
2023-02-25T20:23:09.918Z,100437.34
2023-02-25T20:26:17.295Z,100445.91
2023-02-25T20:29:21.446Z,100448.47
2023-02-25T20:32:24.614Z,100447.66
2023-02-25T20:35:28.782Z,100451.09
2023-02-25T20:38:37.472Z,100457.25
2023-02-25T20:41:42.076Z,100456.91
2023-02-25T20:44:45.886Z,100453.56
2023-02-25T20:47:49.366Z,100468.91
2023-02-25T20:50:53.791Z,100465.69
2023-02-25T20:53:58.794Z,100467.41
2023-02-25T20:57:02.340Z,100472.56
2023-02-25T21:00:09.024Z,100474.38
2023-02-25T21:03:12.148Z,100472.50
2023-02-25T21:06:25.524Z,100480.25
2023-02-25T21:09:30.366Z,100478.38
2023-02-25T21:12:33.607Z,100474.06
2023-02-25T21:15:36.946Z,100485.88
2023-02-25T21:18:41.520Z,100488.34
2023-02-25T21:21:44.856Z,100491.75
2023-02-25T21:24:49.165Z,100494.31
2023-02-25T21:27:52.216Z,100496.19
2023-02-25T21:31:02.467Z,100502.31
2023-02-25T21:34:06.635Z,100511.66
2023-02-25T21:37:09.655Z,100505.75
2023-02-25T21:40:14.431Z,100510.88
2023-02-25T21:43:17.672Z,100511.00
2023-02-25T21:46:20.875Z,100517.78
2023-02-25T21:49:25.005Z,100520.44
2023-02-25T21:52:28.112Z,100525.53
2023-02-25T21:55:32.477Z,100527.19
2023-02-25T21:58:35.473Z,100525.47
2023-02-25T22:01:41.347Z,100525.66
2023-02-25T22:04:45.226Z,100534.25
2023-02-25T22:07:48.301Z,100535.88
2023-02-25T22:10:52.681Z,100539.34
2023-02-25T22:13:56.526Z,100539.34
2023-02-25T22:17:01.830Z,100546.25
2023-02-25T22:20:06.085Z,100542.91
2023-02-25T22:23:09.154Z,100541.22
2023-02-25T22:26:17.302Z,100544.56
2023-02-25T22:29:20.447Z,100551.47
2023-02-25T22:32:23.779Z,100547.09
2023-02-25T22:35:26.987Z,100553.91
2023-02-25T22:38:31.642Z,100552.25
2023-02-25T22:41:36.328Z,100559.03
2023-02-25T22:44:39.346Z,100564.94
2023-02-25T22:47:43.188Z,100566.72
2023-02-25T22:50:50.250Z,100576.94
2023-02-25T22:53:54.409Z,100572.63
2023-02-25T22:56:58.875Z,100580.41
2023-02-25T23:00:03.490Z,100585.41
2023-02-25T23:03:07.765Z,100593.13
2023-02-25T23:06:11.930Z,100591.34
2023-02-25T23:09:15.525Z,100605.03
2023-02-25T23:12:21.325Z,100604.19
2023-02-25T23:15:24.952Z,100605.94
2023-02-25T23:18:28.667Z,100603.41
2023-02-25T23:21:32.403Z,100608.53
2023-02-25T23:24:36.144Z,100611.88
2023-02-25T23:27:40.426Z,100616.94
2023-02-25T23:30:43.628Z,100623.88
2023-02-25T23:33:47.580Z,100619.69
2023-02-25T23:36:50.635Z,100624.78
2023-02-25T23:39:53.619Z,100629.91
2023-02-25T23:42:57.983Z,100640.19
2023-02-25T23:46:04.305Z,100637.63
2023-02-25T23:49:09.651Z,100642.75
2023-02-25T23:52:12.768Z,100649.63
2023-02-25T23:55:16.110Z,100652.19
2023-02-25T23:58:20.489Z,100655.53
